createdAt,value
2022-11-18T00:01:49.403Z,95.82
2022-11-18T00:04:18.705Z,96.13
2022-11-18T00:06:47.877Z,96.22
2022-11-18T00:09:17.383Z,96.46
2022-11-18T00:11:59.590Z,96.31
2022-11-18T00:14:29.134Z,94.91
2022-11-18T00:17:01.764Z,95.08
2022-11-18T00:19:33.037Z,94.41
2022-11-18T00:22:02.823Z,94.93
2022-11-18T00:24:31.948Z,94.24
2022-11-18T00:27:01.548Z,94.04
2022-11-18T00:29:32.604Z,93.62
2022-11-18T00:32:13.986Z,93.66
2022-11-18T00:34:43.790Z,93.30
2022-11-18T00:37:12.884Z,93.37
2022-11-18T00:39:42.287Z,94.23
2022-11-18T00:42:24.289Z,92.60
2022-11-18T00:44:53.807Z,93.27
2022-11-18T00:47:24.919Z,94.35
2022-11-18T00:49:59.270Z,93.12
2022-11-18T00:52:28.380Z,92.96
2022-11-18T00:55:03.018Z,92.97
2022-11-18T00:57:32.565Z,92.77
2022-11-18T01:00:08.238Z,92.55
2022-11-18T01:02:39.705Z,93.70
2022-11-18T01:05:10.037Z,93.46
2022-11-18T01:07:39.413Z,94.81
2022-11-18T01:10:09.157Z,95.28
2022-11-18T01:12:54.244Z,93.95
2022-11-18T01:15:23.730Z,93.05
2022-11-18T01:20:35.618Z,92.10
2022-11-18T01:23:04.824Z,91.18
2022-11-18T01:25:34.098Z,92.23
2022-11-18T01:28:03.336Z,91.93
2022-11-18T01:30:36.278Z,90.37
2022-11-18T01:33:08.101Z,90.98
2022-11-18T01:35:38.237Z,90.44
2022-11-18T01:38:07.958Z,90.25
2022-11-18T01:40:37.798Z,90.75
2022-11-18T01:43:15.351Z,89.86
2022-11-18T01:45:46.736Z,90.17
2022-11-18T01:48:28.485Z,89.78
2022-11-18T01:51:02.796Z,90.52
2022-11-18T01:53:37.214Z,90.15
2022-11-18T01:56:12.881Z,90.29
2022-11-18T01:58:51.160Z,90.44
2022-11-18T02:01:20.890Z,89.85
2022-11-18T02:03:53.153Z,89.74
2022-11-18T02:06:22.998Z,89.56
2022-11-18T02:08:53.186Z,89.79
2022-11-18T02:11:35.380Z,89.20
2022-11-18T02:14:06.954Z,89.61
2022-11-18T02:16:48.669Z,90.11
2022-11-18T02:19:46.239Z,89.30
2022-11-18T02:22:35.701Z,89.71
2022-11-18T02:25:10.393Z,89.27
2022-11-18T02:28:07.697Z,89.10
2022-11-18T02:30:46.186Z,89.20
2022-11-18T02:33:26.912Z,89.71
2022-11-18T02:36:03.918Z,89.12
2022-11-18T02:38:38.627Z,88.84
2022-11-18T02:41:11.214Z,89.56
2022-11-18T02:43:45.510Z,89.17
2022-11-18T02:46:27.571Z,88.70
2022-11-18T02:48:57.547Z,89.29
2022-11-18T02:51:30.850Z,89.35
2022-11-18T02:54:05.217Z,89.56
2022-11-18T02:56:36.394Z,89.22
2022-11-18T02:59:06.500Z,90.43
2022-11-18T03:01:43.670Z,90.89
2022-11-18T03:04:13.752Z,90.28
2022-11-18T03:06:45.465Z,90.50
2022-11-18T03:09:20.492Z,90.65
2022-11-18T03:12:05.965Z,90.12
2022-11-18T03:14:42.300Z,89.95
2022-11-18T03:17:25.276Z,89.74
2022-11-18T03:20:12.607Z,89.75
2022-11-18T03:22:54.242Z,90.53
2022-11-18T03:25:28.345Z,90.60
2022-11-18T03:28:02.555Z,90.87
2022-11-18T03:30:36.192Z,90.18
2022-11-18T03:33:12.256Z,89.70
2022-11-18T03:35:49.885Z,89.34
2022-11-18T03:38:23.461Z,90.05
2022-11-18T03:40:57.349Z,90.40
2022-11-18T03:43:33.054Z,90.05
2022-11-18T03:46:07.719Z,90.96
2022-11-18T03:48:43.913Z,90.75
2022-11-18T03:51:16.617Z,89.82
2022-11-18T03:53:49.858Z,90.11
2022-11-18T03:56:25.457Z,88.78
2022-11-18T03:59:07.029Z,88.97
2022-11-18T04:01:42.175Z,89.04
2022-11-18T04:04:15.014Z,88.43
2022-11-18T04:06:48.195Z,88.54
2022-11-18T04:09:27.331Z,88.91
2022-11-18T04:12:04.808Z,88.81
2022-11-18T04:14:37.046Z,89.12
2022-11-18T04:17:10.529Z,88.82
2022-11-18T04:19:42.263Z,88.28
2022-11-18T04:22:12.153Z,88.53
2022-11-18T04:24:44.513Z,88.19
2022-11-18T04:27:14.341Z,87.92
2022-11-18T04:29:43.638Z,88.24
2022-11-18T04:32:13.087Z,88.40
2022-11-18T04:34:44.155Z,88.62
2022-11-18T04:37:13.390Z,88.26
2022-11-18T04:39:42.538Z,87.92
2022-11-18T04:42:11.681Z,87.06
2022-11-18T04:44:40.862Z,86.65
2022-11-18T04:47:12.606Z,87.09
2022-11-18T04:49:48.953Z,86.91
2022-11-18T04:52:18.383Z,87.68
2022-11-18T04:54:47.762Z,87.43
2022-11-18T04:57:17.063Z,87.22
2022-11-18T04:59:52.459Z,86.73
2022-11-18T05:02:21.877Z,87.01
2022-11-18T05:04:52.918Z,87.62
2022-11-18T05:07:22.195Z,87.41
2022-11-18T05:09:51.449Z,87.82
2022-11-18T05:12:33.605Z,87.11
2022-11-18T05:15:03.109Z,86.68
2022-11-18T05:17:36.309Z,86.98
2022-11-18T05:20:08.722Z,87.79
2022-11-18T05:22:43.037Z,86.80
2022-11-18T05:25:12.586Z,87.14
2022-11-18T05:27:41.901Z,87.49
2022-11-18T05:30:17.797Z,87.18
2022-11-18T05:32:46.922Z,87.28
2022-11-18T05:35:23.745Z,88.27
2022-11-18T05:37:53.014Z,87.80
2022-11-18T05:40:22.110Z,87.40
2022-11-18T05:43:15.062Z,87.51
2022-11-18T05:45:45.982Z,87.67
2022-11-18T05:48:15.470Z,87.87
2022-11-18T05:50:49.841Z,87.41
2022-11-18T05:53:19.931Z,87.38
2022-11-18T05:55:55.355Z,87.42
2022-11-18T05:58:29.839Z,86.94
2022-11-18T06:01:04.362Z,87.64
2022-11-18T06:03:37.643Z,86.70
2022-11-18T06:06:11.020Z,86.81
2022-11-18T06:08:45.376Z,87.11
2022-11-18T06:11:18.482Z,87.51
2022-11-18T06:13:59.406Z,87.03
2022-11-18T06:16:34.257Z,86.72
2022-11-18T06:19:11.170Z,86.89
2022-11-18T06:21:42.299Z,86.27
2022-11-18T06:24:11.792Z,86.51
2022-11-18T06:26:46.854Z,87.39
2022-11-18T06:29:26.008Z,86.72
2022-11-18T06:31:57.435Z,86.73
2022-11-18T06:34:26.631Z,86.80
2022-11-18T06:36:57.652Z,87.02
2022-11-18T06:39:26.993Z,86.61
2022-11-18T06:41:56.120Z,86.49
2022-11-18T06:44:23.419Z,86.53
2022-11-18T06:46:58.099Z,85.83
2022-11-18T06:49:29.212Z,86.38
2022-11-18T06:52:00.470Z,87.79
2022-11-18T06:54:29.730Z,87.90
2022-11-18T06:56:58.821Z,88.35
2022-11-18T06:59:28.273Z,89.00
2022-11-18T07:01:57.651Z,88.49
2022-11-18T07:04:27.915Z,88.83
2022-11-18T07:06:57.240Z,88.32
2022-11-18T07:09:28.370Z,87.99
2022-11-18T07:11:57.744Z,87.90
2022-11-18T07:14:26.867Z,88.27
2022-11-18T07:16:56.178Z,87.88
2022-11-18T07:19:25.437Z,87.51
2022-11-18T07:21:54.726Z,88.06
2022-11-18T07:24:23.848Z,87.95
2022-11-18T07:27:00.103Z,87.99
2022-11-18T07:29:31.911Z,86.84
2022-11-18T07:32:01.205Z,86.30
2022-11-18T07:34:30.587Z,85.99
2022-11-18T07:36:59.774Z,86.42
2022-11-18T07:39:29.335Z,87.41
2022-11-18T07:42:00.701Z,87.06
2022-11-18T07:44:29.941Z,86.25
2022-11-18T07:46:59.186Z,86.02
2022-11-18T07:49:28.464Z,85.19
2022-11-18T07:51:57.554Z,85.59
2022-11-18T07:54:26.773Z,86.27
2022-11-18T07:56:58.315Z,86.01
2022-11-18T07:59:30.708Z,85.22
2022-11-18T08:02:00.415Z,85.17
2022-11-18T08:04:34.779Z,84.16
2022-11-18T08:07:04.119Z,84.77
2022-11-18T08:09:33.293Z,84.18
2022-11-18T08:12:02.753Z,84.52
2022-11-18T08:14:34.060Z,84.52
2022-11-18T08:17:03.597Z,84.43
2022-11-18T08:19:33.785Z,85.38
2022-11-18T08:22:15.145Z,84.40
2022-11-18T08:24:44.726Z,85.76
2022-11-18T08:27:14.339Z,84.64
2022-11-18T08:29:47.494Z,84.79
2022-11-18T08:32:19.775Z,84.22
2022-11-18T08:34:50.541Z,84.00
2022-11-18T08:37:20.611Z,83.47
2022-11-18T08:39:51.823Z,83.37
2022-11-18T08:42:24.425Z,83.88
2022-11-18T08:44:56.432Z,83.95
2022-11-18T08:47:25.892Z,83.91
2022-11-18T08:49:55.390Z,84.05
2022-11-18T08:52:24.866Z,83.52
2022-11-18T08:54:54.330Z,83.32
2022-11-18T08:57:23.628Z,83.27
2022-11-18T08:59:53.143Z,83.94
2022-11-18T09:02:25.683Z,84.08
2022-11-18T09:04:55.440Z,84.18
2022-11-18T09:07:24.787Z,85.61
2022-11-18T09:09:54.299Z,85.63
2022-11-18T09:12:23.765Z,86.69
2022-11-18T09:15:12.821Z,86.36
2022-11-18T09:17:54.622Z,87.36
2022-11-18T09:20:23.984Z,86.57
2022-11-18T09:22:53.385Z,86.27
2022-11-18T09:25:22.544Z,86.31
2022-11-18T09:27:52.297Z,85.58
2022-11-18T09:30:21.879Z,86.59
2022-11-18T09:32:58.011Z,85.35
2022-11-18T09:35:27.942Z,85.21
2022-11-18T09:37:57.055Z,85.20
2022-11-18T09:40:26.728Z,84.64
2022-11-18T09:43:07.095Z,85.08
2022-11-18T09:45:40.276Z,85.85
2022-11-18T09:48:20.167Z,86.03
2022-11-18T09:50:56.145Z,84.42
2022-11-18T09:53:27.824Z,84.91
2022-11-18T09:55:57.871Z,83.86
2022-11-18T09:58:34.611Z,84.34
2022-11-18T10:01:04.535Z,84.48
2022-11-18T10:03:36.760Z,85.56
2022-11-18T10:06:23.779Z,85.65
2022-11-18T10:09:05.884Z,84.91
2022-11-18T10:11:42.736Z,84.44
2022-11-18T10:14:28.133Z,84.70
2022-11-18T10:17:05.174Z,84.96
2022-11-18T10:19:43.266Z,85.59
2022-11-18T10:22:25.029Z,85.69
2022-11-18T10:24:58.099Z,85.46
2022-11-18T10:27:35.924Z,86.13
2022-11-18T10:30:13.671Z,85.29
2022-11-18T10:32:56.257Z,85.75
2022-11-18T10:35:31.167Z,86.01
2022-11-18T10:38:08.257Z,86.49
2022-11-18T10:40:42.191Z,86.65
2022-11-18T10:43:47.296Z,86.05
2022-11-18T10:46:26.716Z,86.65
2022-11-18T10:49:23.123Z,87.15
2022-11-18T10:52:11.849Z,86.56
2022-11-18T10:54:46.956Z,88.02
2022-11-18T10:57:20.682Z,86.66
2022-11-18T10:59:59.403Z,86.79
2022-11-18T11:02:33.587Z,88.00
2022-11-18T11:05:06.264Z,88.00
2022-11-18T11:07:40.166Z,88.13
2022-11-18T11:10:23.845Z,88.15
2022-11-18T11:12:59.158Z,88.23
2022-11-18T11:15:37.079Z,87.77
2022-11-18T11:18:38.821Z,87.81
2022-11-18T11:21:13.407Z,89.37
2022-11-18T11:23:45.645Z,88.96
2022-11-18T11:29:22.801Z,88.84
2022-11-18T11:32:05.829Z,89.19
2022-11-18T11:34:44.713Z,90.44
2022-11-18T11:37:24.486Z,91.19
2022-11-18T11:40:25.735Z,89.93
2022-11-18T11:43:07.923Z,91.11
2022-11-18T11:45:46.292Z,90.47
2022-11-18T11:48:39.959Z,90.62
2022-11-18T11:51:18.567Z,89.70
2022-11-18T11:54:20.525Z,89.85
2022-11-18T11:56:57.168Z,88.59
2022-11-18T11:59:34.740Z,89.28
2022-11-18T12:02:29.609Z,89.10
2022-11-18T12:05:05.333Z,89.03
2022-11-18T12:07:41.148Z,88.99
2022-11-18T12:10:40.068Z,87.95
2022-11-18T12:13:22.673Z,90.26
2022-11-18T12:16:07.117Z,89.83
2022-11-18T12:18:42.293Z,89.95
2022-11-18T12:21:35.063Z,90.95
2022-11-18T12:24:32.649Z,90.42
2022-11-18T12:27:14.069Z,91.53
2022-11-18T12:29:59.480Z,91.90
2022-11-18T12:32:34.404Z,92.45
2022-11-18T12:35:08.322Z,90.56
2022-11-18T12:37:45.830Z,91.37
2022-11-18T12:40:34.155Z,91.89
2022-11-18T12:43:27.397Z,92.42
2022-11-18T12:46:00.114Z,92.28
2022-11-18T12:55:40.019Z,93.73
2022-11-18T12:58:25.100Z,93.43
2022-11-18T13:01:17.385Z,93.99
2022-11-18T13:03:46.963Z,93.52
2022-11-18T13:06:25.793Z,93.50
2022-11-18T13:08:59.867Z,93.09
2022-11-18T13:11:46.813Z,92.74
2022-11-18T13:14:35.300Z,93.51
2022-11-18T13:17:17.862Z,93.46
2022-11-18T13:19:57.783Z,93.76
2022-11-18T13:22:45.115Z,94.99
2022-11-18T13:25:29.149Z,94.65
2022-11-18T13:28:11.350Z,93.49
2022-11-18T13:30:47.242Z,93.82
2022-11-18T13:33:16.604Z,94.97
2022-11-18T13:35:46.773Z,94.28
2022-11-18T13:38:28.045Z,93.76
2022-11-18T13:41:07.778Z,93.52
2022-11-18T13:43:39.266Z,95.28
2022-11-18T13:46:15.175Z,95.69
2022-11-18T13:48:49.830Z,95.59
2022-11-18T13:51:20.370Z,93.45
2022-11-18T13:53:49.832Z,92.32
2022-11-18T13:56:23.307Z,92.50
2022-11-18T14:01:54.622Z,93.93
2022-11-18T14:04:33.972Z,94.05
2022-11-18T14:07:24.970Z,94.28
2022-11-18T14:09:56.370Z,94.90
2022-11-18T14:12:28.644Z,93.98
2022-11-18T14:15:21.894Z,93.21
2022-11-18T14:17:56.904Z,94.34
2022-11-18T14:20:27.221Z,93.14
2022-11-18T14:22:58.033Z,92.46
2022-11-18T14:25:31.884Z,92.87
2022-11-18T14:28:15.514Z,93.11
2022-11-18T14:31:07.026Z,94.40
2022-11-18T14:33:37.830Z,94.36
2022-11-18T14:36:13.316Z,95.34
2022-11-18T14:39:19.273Z,94.09
2022-11-18T14:41:49.483Z,94.71
2022-11-18T14:44:19.651Z,95.39
2022-11-18T14:46:54.885Z,96.00
2022-11-18T14:49:26.493Z,95.11
2022-11-18T14:54:36.754Z,94.14
2022-11-18T14:57:07.402Z,95.58
2022-11-18T14:59:41.707Z,95.16
2022-11-18T15:02:18.161Z,95.68
2022-11-18T15:04:48.142Z,94.37
2022-11-18T15:07:23.386Z,95.22
2022-11-18T15:09:53.459Z,95.50
2022-11-18T15:12:22.676Z,94.30
2022-11-18T15:14:52.055Z,94.60
2022-11-18T15:17:28.199Z,95.08
2022-11-18T15:19:57.358Z,96.38
2022-11-18T15:22:26.580Z,96.21
2022-11-18T15:24:55.845Z,97.42
2022-11-18T15:27:24.966Z,94.87
2022-11-18T15:29:56.393Z,95.37
2022-11-18T15:32:30.548Z,95.13
2022-11-18T15:35:04.822Z,95.06
2022-11-18T15:37:34.322Z,95.88
2022-11-18T15:40:03.902Z,96.79
2022-11-18T15:42:36.475Z,96.18
2022-11-18T15:45:12.074Z,96.90
2022-11-18T15:47:47.759Z,96.18
2022-11-18T15:50:18.583Z,96.47
2022-11-18T15:52:47.751Z,97.64
2022-11-18T15:55:16.994Z,95.88
2022-11-18T15:57:46.270Z,96.66
2022-11-18T16:00:16.818Z,96.41
2022-11-18T16:02:48.640Z,96.52
2022-11-18T16:05:17.958Z,97.87
2022-11-18T16:07:51.389Z,98.50
2022-11-18T16:10:36.941Z,99.24
2022-11-18T16:13:06.285Z,100.00
2022-11-18T16:18:29.731Z,100.00
2022-11-18T16:21:00.397Z,100.00
2022-11-18T16:23:30.470Z,100.00
2022-11-18T16:25:59.568Z,100.00
2022-11-18T16:28:29.939Z,100.00
2022-11-18T16:31:12.146Z,100.00
2022-11-18T16:33:54.042Z,100.00
2022-11-18T16:36:27.940Z,100.00
2022-11-18T16:38:57.753Z,100.00
2022-11-18T16:41:35.857Z,100.00
2022-11-18T16:44:12.904Z,100.00
2022-11-18T16:46:44.253Z,100.00
2022-11-18T16:49:17.636Z,100.00
2022-11-18T16:51:55.242Z,100.00
2022-11-18T16:54:31.196Z,100.00
2022-11-18T16:57:01.430Z,100.00
2022-11-18T16:59:32.190Z,100.00
2022-11-18T17:02:07.226Z,100.00
2022-11-18T17:04:38.886Z,100.00
2022-11-18T17:07:08.531Z,100.00
2022-11-18T17:09:37.750Z,100.00
2022-11-18T17:12:07.905Z,100.00
2022-11-18T17:14:39.661Z,100.00
2022-11-18T17:17:08.568Z,100.00
2022-11-18T17:19:39.642Z,100.00
2022-11-18T17:22:08.949Z,100.00
2022-11-18T17:24:38.311Z,100.00
2022-11-18T17:27:07.478Z,100.00
2022-11-18T17:29:37.192Z,100.00
2022-11-18T17:32:07.094Z,100.00
2022-11-18T17:34:36.166Z,100.00
2022-11-18T17:37:12.402Z,100.00
2022-11-18T17:39:41.503Z,100.00
2022-11-18T17:42:18.603Z,100.00
2022-11-18T17:44:47.845Z,100.00
2022-11-18T17:47:16.906Z,100.00
2022-11-18T17:49:46.466Z,100.00
2022-11-18T17:52:18.803Z,100.00
2022-11-18T17:54:53.225Z,100.00
2022-11-18T17:57:22.461Z,100.00
2022-11-18T17:59:51.545Z,100.00
2022-11-18T18:02:25.925Z,100.00
2022-11-18T18:04:55.227Z,100.00
2022-11-18T18:07:26.363Z,100.00
2022-11-18T18:09:55.845Z,100.00
2022-11-18T18:12:37.851Z,100.00
2022-11-18T18:15:08.254Z,100.00
2022-11-18T18:17:37.493Z,99.96
2022-11-18T18:20:07.682Z,99.76
2022-11-18T18:22:38.889Z,99.94
2022-11-18T18:25:09.601Z,99.82
2022-11-18T18:27:38.961Z,99.33
2022-11-18T18:30:09.927Z,98.96
2022-11-18T18:32:39.113Z,99.59
2022-11-18T18:35:09.352Z,99.37
2022-11-18T18:37:40.897Z,99.27
2022-11-18T18:40:11.401Z,99.31
2022-11-18T18:42:41.422Z,99.49
2022-11-18T18:45:25.227Z,99.68
2022-11-18T18:47:54.560Z,99.59
2022-11-18T18:50:29.378Z,99.62
2022-11-18T18:53:05.850Z,99.84
2022-11-18T18:55:35.041Z,99.91
2022-11-18T18:58:04.202Z,100.00
2022-11-18T19:00:38.689Z,100.00
2022-11-18T19:03:09.928Z,100.00
2022-11-18T19:06:12.654Z,100.00
2022-11-18T19:08:35.480Z,100.00
2022-11-18T19:11:07.272Z,99.86
2022-11-18T19:13:34.507Z,100.00
2022-11-18T19:16:07.738Z,99.47
2022-11-18T19:18:42.879Z,99.67
2022-11-18T19:21:12.696Z,99.62
2022-11-18T19:23:44.117Z,99.28
2022-11-18T19:26:13.498Z,99.22
2022-11-18T19:28:42.821Z,99.29
2022-11-18T19:31:12.495Z,99.00
2022-11-18T19:33:41.823Z,99.23
2022-11-18T19:36:12.688Z,99.23
2022-11-18T19:38:44.239Z,99.19
2022-11-18T19:41:18.684Z,98.68
2022-11-18T19:43:48.170Z,99.08
2022-11-18T19:46:17.297Z,98.86
2022-11-18T19:48:52.052Z,98.76
2022-11-18T19:51:21.377Z,98.69
2022-11-18T19:53:57.065Z,98.46
2022-11-18T19:56:29.040Z,98.21
2022-11-18T19:58:59.032Z,97.86
2022-11-18T20:01:29.695Z,97.71
2022-11-18T20:04:01.370Z,97.49
2022-11-18T20:06:30.672Z,97.99
2022-11-18T20:09:01.811Z,97.54
2022-11-18T20:11:31.363Z,97.13
2022-11-18T20:14:00.550Z,97.36
2022-11-18T20:16:29.921Z,96.82
2022-11-18T20:19:07.802Z,96.93
2022-11-18T20:21:38.786Z,96.60
2022-11-18T20:24:12.262Z,96.76
2022-11-18T20:26:43.244Z,96.68
2022-11-18T20:29:13.105Z,96.67
2022-11-18T20:31:42.748Z,97.16
2022-11-18T20:34:15.667Z,96.47
2022-11-18T20:36:46.539Z,96.92
2022-11-18T20:39:23.807Z,96.94
2022-11-18T20:42:05.684Z,96.91
2022-11-18T20:47:09.759Z,97.03
2022-11-18T20:49:39.198Z,96.33
2022-11-18T20:52:08.733Z,96.08
2022-11-18T20:54:40.952Z,96.44
2022-11-18T20:57:10.391Z,96.17
2022-11-18T20:59:39.544Z,96.54
2022-11-18T21:02:13.871Z,96.14
2022-11-18T21:04:44.052Z,96.36
2022-11-18T21:07:13.384Z,96.61
2022-11-18T21:09:50.361Z,96.58
2022-11-18T21:12:24.157Z,96.64
2022-11-18T21:14:53.336Z,96.58
2022-11-18T21:17:22.497Z,96.68
2022-11-18T21:19:51.909Z,96.59
2022-11-18T21:22:19.065Z,96.55
2022-11-18T21:24:50.260Z,96.32
2022-11-18T21:27:19.403Z,96.50
2022-11-18T21:29:49.520Z,96.38
2022-11-18T21:32:18.695Z,96.17
2022-11-18T21:34:48.111Z,96.30
2022-11-18T21:37:17.601Z,96.18
2022-11-18T21:39:46.747Z,96.41
2022-11-18T21:42:24.003Z,96.18
2022-11-18T21:44:57.131Z,96.34
2022-11-18T21:47:26.458Z,96.61
2022-11-18T21:49:55.700Z,96.49
2022-11-18T21:52:24.993Z,96.10
2022-11-18T21:54:54.252Z,96.11
2022-11-18T21:57:25.482Z,96.27
2022-11-18T22:00:00.214Z,96.54
2022-11-18T22:02:30.288Z,96.58
2022-11-18T22:05:06.131Z,96.50
2022-11-18T22:07:35.750Z,96.65
2022-11-18T22:10:05.302Z,96.48
2022-11-18T22:12:36.389Z,96.77
2022-11-18T22:15:06.060Z,96.82
2022-11-18T22:17:35.210Z,96.93
2022-11-18T22:20:04.700Z,96.83
2022-11-18T22:22:33.932Z,96.57
2022-11-18T22:25:03.576Z,96.52
2022-11-18T22:27:32.854Z,97.01
2022-11-18T22:30:04.143Z,96.84
2022-11-18T22:32:33.431Z,96.68
2022-11-18T22:35:02.675Z,96.32
2022-11-18T22:37:32.218Z,96.69
2022-11-18T22:40:03.094Z,96.86
2022-11-18T22:42:48.194Z,97.52
2022-11-18T22:45:24.734Z,97.47
2022-11-18T22:47:53.961Z,97.26
2022-11-18T22:50:23.166Z,97.14
2022-11-18T22:52:58.669Z,96.82
2022-11-18T22:55:27.812Z,96.82
2022-11-18T22:57:57.321Z,96.61
2022-11-18T23:00:28.313Z,96.54
2022-11-18T23:02:57.450Z,96.80
2022-11-18T23:05:26.583Z,96.77
2022-11-18T23:08:01.027Z,96.78
2022-11-18T23:10:31.874Z,96.54
2022-11-18T23:13:18.966Z,96.78
2022-11-18T23:15:50.095Z,96.70
2022-11-18T23:18:19.336Z,96.66
2022-11-18T23:20:48.468Z,97.06
2022-11-18T23:23:17.942Z,96.80
2022-11-18T23:25:47.157Z,96.85
2022-11-18T23:28:16.487Z,96.91
2022-11-18T23:30:45.700Z,96.77
2022-11-18T23:33:16.896Z,96.94
2022-11-18T23:35:46.047Z,96.34
2022-11-18T23:38:15.181Z,96.45
2022-11-18T23:40:56.505Z,96.35
2022-11-18T23:43:26.156Z,96.12
2022-11-18T23:45:55.620Z,95.90
2022-11-18T23:48:28.116Z,95.74
2022-11-18T23:50:58.715Z,95.78
2022-11-18T23:53:34.726Z,95.54
2022-11-18T23:56:05.599Z,95.49
2022-11-18T23:58:34.853Z,95.60
